createdAt,value
2018-07-23T00:01:44.761Z,17.40
2018-07-23T00:04:14.061Z,17.87
2018-07-23T00:06:43.358Z,19.07
2018-07-23T00:09:12.708Z,17.70
2018-07-23T00:29:46.823Z,17.03
2018-07-23T00:32:16.180Z,18.13
2018-07-23T00:34:45.948Z,17.37
2018-07-23T00:37:15.550Z,16.80
2018-07-23T00:39:45.494Z,18.27
2018-07-23T00:42:14.732Z,17.53
2018-07-23T00:44:44.356Z,17.30
2018-07-23T00:47:14.288Z,17.43
2018-07-23T00:49:44.446Z,17.13
2018-07-23T00:52:13.938Z,16.63
2018-07-23T00:54:43.165Z,18.20
2018-07-23T01:15:17.465Z,17.13
2018-07-23T01:17:47.215Z,16.53
2018-07-23T01:20:16.573Z,16.47
2018-07-23T01:22:45.931Z,16.90
2018-07-23T01:25:16.068Z,16.40
2018-07-23T01:27:46.481Z,16.13
2018-07-23T01:30:16.138Z,17.20
2018-07-23T01:32:45.997Z,17.73
2018-07-23T01:35:15.288Z,16.70
2018-07-23T01:37:45.535Z,17.60
2018-07-23T01:40:14.753Z,17.30
2018-07-23T01:42:44.107Z,17.00
2018-07-23T01:45:14.657Z,17.10
2018-07-23T01:47:43.861Z,16.97
2018-07-23T01:50:13.917Z,17.40
2018-07-23T01:52:43.193Z,16.73
2018-07-23T01:55:12.463Z,19.03
2018-07-23T01:57:41.887Z,17.43
2018-07-23T02:00:11.566Z,17.23
2018-07-23T02:02:40.752Z,17.60
2018-07-23T02:05:10.054Z,17.67
2018-07-23T02:07:39.221Z,17.00
2018-07-23T02:10:08.454Z,16.00
2018-07-23T02:12:37.655Z,16.60
2018-07-23T02:15:06.907Z,18.10
2018-07-23T02:17:37.462Z,17.63
2018-07-23T02:20:06.727Z,16.97
2018-07-23T02:22:36.030Z,17.20
2018-07-23T02:25:05.557Z,17.57
2018-07-23T02:27:36.756Z,18.53
2018-07-23T02:30:06.262Z,17.67
2018-07-23T02:32:36.176Z,18.50
2018-07-23T02:35:06.249Z,18.30
2018-07-23T02:37:36.255Z,16.87
2018-07-23T02:40:05.584Z,17.50
2018-07-23T02:42:34.896Z,17.90
2018-07-23T02:45:04.389Z,17.97
2018-07-23T02:47:34.311Z,17.77
2018-07-23T02:50:04.289Z,17.87
2018-07-23T02:52:33.967Z,17.23
2018-07-23T02:55:03.910Z,17.73
2018-07-23T02:57:33.161Z,17.67
2018-07-23T03:00:03.439Z,17.50
2018-07-23T03:02:32.674Z,15.37
2018-07-23T03:05:01.867Z,16.60
2018-07-23T03:07:31.267Z,17.30
2018-07-23T03:10:00.535Z,17.83
2018-07-23T03:12:29.486Z,16.73
2018-07-23T03:14:58.811Z,18.17
2018-07-23T03:17:28.144Z,18.33
2018-07-23T03:19:58.433Z,17.00
2018-07-23T03:22:28.372Z,16.63
2018-07-23T03:24:58.338Z,16.90
2018-07-23T03:27:27.772Z,18.13
2018-07-23T03:29:57.177Z,18.27
2018-07-23T03:32:26.461Z,18.50
2018-07-23T03:34:55.712Z,17.43
2018-07-23T03:37:25.068Z,18.03
2018-07-23T03:39:54.821Z,17.67
2018-07-23T04:00:28.911Z,19.83
2018-07-23T04:20:54.955Z,19.50
2018-07-23T04:23:24.233Z,18.47
2018-07-23T04:25:53.524Z,19.90
2018-07-23T04:28:23.369Z,18.80
2018-07-23T04:30:52.532Z,19.37
2018-07-23T04:33:22.535Z,19.93
2018-07-23T04:35:51.711Z,20.23
2018-07-23T04:38:22.586Z,19.83
2018-07-23T04:40:51.880Z,19.53
2018-07-23T04:43:21.157Z,21.27
2018-07-23T04:45:50.432Z,20.13
2018-07-23T04:48:19.684Z,20.97
2018-07-23T05:08:51.293Z,18.70
2018-07-23T05:11:20.581Z,19.27
2018-07-23T05:13:50.437Z,18.77
2018-07-23T05:16:20.737Z,19.70
2018-07-23T05:18:49.998Z,20.03
2018-07-23T05:21:19.294Z,20.37
2018-07-23T05:23:49.692Z,19.43
2018-07-23T05:26:19.020Z,18.90
2018-07-23T05:28:48.430Z,17.77
2018-07-23T05:31:17.958Z,18.53
2018-07-23T05:33:47.218Z,17.13
2018-07-23T05:36:16.459Z,17.63
2018-07-23T05:38:46.622Z,16.63
2018-07-23T05:41:16.549Z,17.27
2018-07-23T05:43:45.936Z,17.77
2018-07-23T05:46:16.109Z,17.47
2018-07-23T05:48:45.412Z,17.23
2018-07-23T05:51:15.326Z,17.33
2018-07-23T05:53:44.354Z,16.17
2018-07-23T05:56:13.952Z,17.83
2018-07-23T05:58:43.263Z,16.37
2018-07-23T06:01:12.457Z,18.03
2018-07-23T06:03:42.673Z,17.07
2018-07-23T06:06:11.859Z,18.43
2018-07-23T06:08:41.511Z,16.80
2018-07-23T06:11:10.746Z,18.53
2018-07-23T06:13:40.007Z,17.43
2018-07-23T06:16:09.461Z,17.27
2018-07-23T06:18:38.893Z,17.70
2018-07-23T06:21:08.926Z,16.93
2018-07-23T06:23:38.364Z,17.77
2018-07-23T06:26:07.735Z,16.83
2018-07-23T06:28:38.142Z,17.67
2018-07-23T06:31:07.887Z,16.87
2018-07-23T06:33:37.189Z,17.23
2018-07-23T06:36:06.482Z,16.30
2018-07-23T06:38:35.800Z,17.03
2018-07-23T06:41:05.127Z,18.40
2018-07-23T06:43:35.102Z,17.57
2018-07-23T06:46:04.733Z,17.23
2018-07-23T06:48:35.169Z,17.67
2018-07-23T06:51:05.205Z,17.60
2018-07-23T06:53:34.569Z,16.70
2018-07-23T06:56:04.687Z,16.17
2018-07-23T06:58:34.420Z,16.73
2018-07-23T07:01:05.082Z,15.57
2018-07-23T07:03:34.394Z,16.17
2018-07-23T07:06:05.163Z,16.87
2018-07-23T07:08:34.433Z,16.83
2018-07-23T07:29:07.610Z,15.57
2018-07-23T07:31:37.365Z,16.57
2018-07-23T07:34:06.693Z,14.90
2018-07-23T07:36:36.370Z,15.90
2018-07-23T07:39:08.583Z,15.57
2018-07-23T07:41:38.129Z,13.33
2018-07-23T07:44:08.122Z,14.40
2018-07-23T07:46:39.650Z,14.23
2018-07-23T07:49:09.281Z,16.47
2018-07-23T07:51:38.536Z,15.47
2018-07-23T07:54:08.524Z,15.80
2018-07-23T07:56:38.353Z,15.87
2018-07-23T07:59:07.850Z,15.70
2018-07-23T08:01:37.034Z,14.27
2018-07-23T08:04:06.338Z,14.60
2018-07-23T08:24:40.926Z,13.03
2018-07-23T08:27:10.305Z,14.03
2018-07-23T08:29:39.623Z,13.73
2018-07-23T08:32:10.041Z,12.77
2018-07-23T08:34:39.242Z,12.73
2018-07-23T08:37:08.509Z,13.87
2018-07-23T08:39:37.835Z,13.67
2018-07-23T09:00:12.243Z,12.80
2018-07-23T09:02:43.069Z,12.10
2018-07-23T09:05:13.738Z,13.07
2018-07-23T09:07:43.030Z,12.87
2018-07-23T09:10:12.670Z,12.40
2018-07-23T09:12:43.401Z,12.83
2018-07-23T09:15:13.045Z,12.67
2018-07-23T09:17:44.021Z,12.63
2018-07-23T09:20:13.496Z,13.20
2018-07-23T09:40:46.370Z,12.57
2018-07-23T09:43:15.637Z,13.20
2018-07-23T09:45:44.839Z,12.30
2018-07-23T10:06:18.823Z,14.43
2018-07-23T10:08:48.125Z,12.50
2018-07-23T10:11:17.936Z,13.47
2018-07-23T10:13:47.518Z,13.13
2018-07-23T10:34:22.032Z,15.43
2018-07-23T10:36:51.346Z,14.40
2018-07-23T10:39:20.661Z,13.70
2018-07-23T10:41:50.669Z,14.17
2018-07-23T10:44:20.009Z,14.13
2018-07-23T10:46:49.261Z,12.60
2018-07-23T10:49:18.404Z,13.90
2018-07-23T10:51:48.337Z,13.43
2018-07-23T10:54:17.601Z,11.53
2018-07-23T10:56:47.730Z,12.70
2018-07-23T10:59:17.611Z,13.73
2018-07-23T11:01:48.455Z,12.53
2018-07-23T11:04:17.815Z,13.37
2018-07-23T11:06:47.076Z,12.80
2018-07-23T11:09:16.273Z,14.17
2018-07-23T11:11:45.517Z,15.10
2018-07-23T11:14:15.153Z,13.63
2018-07-23T11:16:45.007Z,14.03
2018-07-23T11:19:14.325Z,14.03
2018-07-23T11:21:43.710Z,16.03
2018-07-23T11:24:13.069Z,18.10
2018-07-23T11:26:42.457Z,16.83
2018-07-23T11:29:13.021Z,17.73
2018-07-23T11:31:42.926Z,15.80
2018-07-23T11:34:12.142Z,15.47
2018-07-23T11:36:41.451Z,13.93
2018-07-23T11:39:12.085Z,16.10
2018-07-23T11:41:41.464Z,16.03
2018-07-23T11:44:11.537Z,14.53
2018-07-23T11:46:41.814Z,14.73
2018-07-23T11:49:11.778Z,15.07
2018-07-23T11:51:41.123Z,12.43
2018-07-23T11:54:10.749Z,14.73
2018-07-23T11:56:40.597Z,13.30
2018-07-23T11:59:10.608Z,13.03
2018-07-23T12:01:39.898Z,11.53
2018-07-23T12:04:10.409Z,12.10
2018-07-23T12:06:39.116Z,11.43
2018-07-23T12:09:09.969Z,11.60
2018-07-23T12:11:39.601Z,12.70
2018-07-23T12:14:10.021Z,11.77
2018-07-23T12:16:39.305Z,11.40
2018-07-23T12:19:09.235Z,11.10
2018-07-23T12:21:38.534Z,9.97
2018-07-23T12:24:07.750Z,11.30
2018-07-23T12:26:37.016Z,11.10
2018-07-23T12:29:06.309Z,10.70
2018-07-23T12:31:35.553Z,10.30
2018-07-23T12:34:05.556Z,11.27
2018-07-23T12:36:34.848Z,10.90
2018-07-23T12:39:06.671Z,11.13
2018-07-23T12:59:39.415Z,9.43
2018-07-23T13:02:10.018Z,9.37
2018-07-23T13:04:39.334Z,9.30
2018-07-23T13:07:09.365Z,9.63
2018-07-23T13:09:38.629Z,8.13
2018-07-23T13:30:11.959Z,8.27
2018-07-23T13:32:41.675Z,8.30
2018-07-23T13:35:11.867Z,7.77
2018-07-23T13:37:42.740Z,7.73
2018-07-23T13:40:12.918Z,7.80
2018-07-23T13:42:42.154Z,7.83
2018-07-23T13:45:11.945Z,6.83
2018-07-23T13:47:42.470Z,7.43
2018-07-23T13:50:11.957Z,7.60
2018-07-23T14:10:46.217Z,6.87
2018-07-23T14:13:16.217Z,6.90
2018-07-23T14:15:45.635Z,6.27
2018-07-23T14:36:19.131Z,5.80
2018-07-23T14:38:49.203Z,6.30
2018-07-23T14:41:20.712Z,6.33
2018-07-23T14:43:50.700Z,6.60
2018-07-23T14:46:20.501Z,7.00
2018-07-23T14:48:50.511Z,6.60
2018-07-23T14:51:19.791Z,6.70
2018-07-23T14:53:48.936Z,7.03
2018-07-23T14:56:18.447Z,6.87
2018-07-23T14:58:47.701Z,6.93
2018-07-23T15:01:17.001Z,6.77
2018-07-23T15:03:46.468Z,6.63
2018-07-23T15:06:15.735Z,6.30
2018-07-23T15:08:45.769Z,6.17
2018-07-23T15:11:14.985Z,6.33
2018-07-23T15:13:44.285Z,6.50
2018-07-23T15:16:13.667Z,6.83
2018-07-23T15:18:44.403Z,6.57
2018-07-23T15:21:13.667Z,6.67
2018-07-23T15:23:43.518Z,7.10
2018-07-23T15:26:12.830Z,6.60
2018-07-23T15:28:42.706Z,6.70
2018-07-23T15:31:12.038Z,6.90
2018-07-23T15:33:41.256Z,6.63
2018-07-23T15:36:10.480Z,5.97
2018-07-23T15:38:41.822Z,6.30
2018-07-23T15:41:11.238Z,6.90
2018-07-23T15:43:40.507Z,6.60
2018-07-23T15:46:11.004Z,5.83
2018-07-23T15:48:40.556Z,6.57
2018-07-23T16:09:14.794Z,7.00
2018-07-23T16:11:44.212Z,6.97
2018-07-23T16:14:14.551Z,7.00
2018-07-23T16:34:49.093Z,8.60
2018-07-23T16:37:19.214Z,7.70
2018-07-23T16:39:48.437Z,8.10
2018-07-23T16:42:17.373Z,7.93
2018-07-23T16:44:46.665Z,8.40
2018-07-23T16:47:16.705Z,7.50
2018-07-23T16:49:46.061Z,7.87
2018-07-23T16:52:15.328Z,8.80
2018-07-23T16:54:44.636Z,8.57
2018-07-23T16:57:15.676Z,8.17
2018-07-23T16:59:46.525Z,8.60
2018-07-23T17:02:15.800Z,8.83
2018-07-23T17:04:46.101Z,8.47
2018-07-23T17:07:15.618Z,7.77
2018-07-23T17:09:44.913Z,7.93
2018-07-23T17:12:14.586Z,8.67
2018-07-23T17:14:43.898Z,8.43
2018-07-23T17:17:13.765Z,8.37
2018-07-23T17:19:43.289Z,8.47
2018-07-23T17:22:13.107Z,8.27
2018-07-23T17:24:42.440Z,8.43
2018-07-23T17:27:12.084Z,8.40
2018-07-23T17:29:41.322Z,8.43
2018-07-23T17:32:10.624Z,8.10
2018-07-23T17:34:41.053Z,8.30
2018-07-23T17:37:10.273Z,8.57
2018-07-23T17:39:40.573Z,8.40
2018-07-23T17:42:10.270Z,8.23
2018-07-23T17:44:39.488Z,8.13
2018-07-23T17:47:08.768Z,8.73
2018-07-23T17:49:38.414Z,8.83
2018-07-23T17:52:08.472Z,8.67
2018-07-23T17:54:37.524Z,8.03
2018-07-23T17:57:07.272Z,8.83
2018-07-23T17:59:37.137Z,8.20
2018-07-23T18:02:06.796Z,8.73
2018-07-23T18:04:36.485Z,8.20
2018-07-23T18:07:06.373Z,8.80
2018-07-23T18:09:35.664Z,9.10
2018-07-23T18:12:05.708Z,9.33
2018-07-23T18:14:34.921Z,9.63
2018-07-23T18:17:04.229Z,9.10
2018-07-23T18:19:33.531Z,9.67
2018-07-23T18:22:02.744Z,9.97
2018-07-23T18:24:32.045Z,9.90
2018-07-23T18:27:01.325Z,10.90
2018-07-23T18:29:30.678Z,10.37
2018-07-23T18:31:59.878Z,10.10
2018-07-23T18:34:29.160Z,10.67
2018-07-23T18:36:58.603Z,10.20
2018-07-23T18:39:29.258Z,9.97
2018-07-23T18:41:59.350Z,9.60
2018-07-23T18:44:28.593Z,10.00
2018-07-23T18:46:58.495Z,10.40
2018-07-23T18:49:43.497Z,10.03
2018-07-23T18:52:14.229Z,10.13
2018-07-23T18:54:45.175Z,10.20
2018-07-23T18:57:14.648Z,10.17
2018-07-23T19:17:48.985Z,11.80
2018-07-23T19:20:18.393Z,11.03
2018-07-23T19:22:48.355Z,11.20
2018-07-23T19:25:17.749Z,11.07
2018-07-23T19:27:47.071Z,12.00
2018-07-23T19:48:20.713Z,11.73
2018-07-23T20:08:55.090Z,12.23
2018-07-23T20:11:25.298Z,13.23
2018-07-23T20:13:54.582Z,12.70
2018-07-23T20:16:24.181Z,14.30
2018-07-23T20:18:53.500Z,13.70
2018-07-23T20:21:22.729Z,13.07
2018-07-23T20:41:55.575Z,13.43
2018-07-23T20:44:24.998Z,13.73
2018-07-23T20:46:54.294Z,14.23
2018-07-23T20:49:24.268Z,14.87
2018-07-23T20:51:54.233Z,13.97
2018-07-23T20:54:24.031Z,13.93
2018-07-23T20:56:53.384Z,14.20
2018-07-23T20:59:22.651Z,14.57
2018-07-23T21:01:52.573Z,15.60
2018-07-23T21:04:21.788Z,15.10
2018-07-23T21:06:51.048Z,14.03
2018-07-23T21:09:20.295Z,14.43
2018-07-23T21:11:49.585Z,14.70
2018-07-23T21:14:18.978Z,16.07
2018-07-23T21:16:48.270Z,14.53
2018-07-23T21:19:17.465Z,14.57
2018-07-23T21:39:52.069Z,15.13
2018-07-23T21:42:21.779Z,15.23
2018-07-23T21:44:51.189Z,15.40
2018-07-23T21:47:20.509Z,15.20
2018-07-23T21:49:51.467Z,14.80
2018-07-23T21:52:20.815Z,15.90
2018-07-23T21:54:50.037Z,16.13
2018-07-23T21:57:19.337Z,15.57
2018-07-23T21:59:48.669Z,15.30
2018-07-23T22:20:22.256Z,18.17
2018-07-23T22:22:51.402Z,17.27
2018-07-23T22:25:20.530Z,17.70
2018-07-23T22:27:49.776Z,17.87
2018-07-23T22:30:19.084Z,18.43
2018-07-23T22:32:48.082Z,19.60
2018-07-23T22:35:17.289Z,19.60
2018-07-23T22:37:46.428Z,18.57
2018-07-23T22:40:15.596Z,20.67
2018-07-23T22:42:45.116Z,20.50
2018-07-23T22:45:14.256Z,19.40
2018-07-23T22:47:43.408Z,20.13
2018-07-23T22:50:12.640Z,20.43
2018-07-23T22:52:42.784Z,19.53
2018-07-23T22:55:11.940Z,19.50
2018-07-23T22:57:41.282Z,20.27
2018-07-23T23:00:10.453Z,19.30
2018-07-23T23:20:43.824Z,20.23
2018-07-23T23:23:12.974Z,20.93
2018-07-23T23:25:42.124Z,20.60
2018-07-23T23:28:11.472Z,19.33
2018-07-23T23:30:40.636Z,20.80
2018-07-23T23:33:09.776Z,19.17
2018-07-23T23:35:38.936Z,18.67
2018-07-23T23:38:08.120Z,20.03
2018-07-23T23:40:37.273Z,19.73
2018-07-23T23:43:06.720Z,17.83
2018-07-23T23:45:35.871Z,18.67
2018-07-23T23:48:05.020Z,19.17
2018-07-23T23:50:34.599Z,20.43
2018-07-23T23:53:04.072Z,18.23
2018-07-23T23:55:33.328Z,18.17
2018-07-23T23:58:02.605Z,18.90
